Alden Manor, New York
Current Conditions -  °F | °C
As of 10:51 PM on Wednesday 28 Jan 2015 (Local Time) from KJFK Reporting Station
Clear Clear  
Wind Chill: 17°   Ceiling: Unl
Heat Index: 25°   Visibility: 10mi
Dew Point:   Wind: 7mph
Humidity: 49%   Direction: 10°N
Pressure: 30.27"   Gusts: NA
Location:  40.7013°N, 73.7074°W
Report Text: KJFK 290351Z 01006KT 10SM CLR M04/M13 A3027 RMK AO2 SLP251 T10391133 $
Loading
Personal Weather Stations






























Interactive Weather Map New forecast layout! Learn more

10-Day Weather Forecast

Advertisements
Track Severe Weather on mobile